sensor_id;sensor_type;location;lat;lon;timestamp;temperature;humidity
27559;DHT22;15002;52.028;5.670;2023-03-23T00:00:38;14.50;99.90
27559;DHT22;15002;52.028;5.670;2023-03-23T00:03:04;14.40;99.90
27559;DHT22;15002;52.028;5.670;2023-03-23T00:05:29;14.30;99.90
27559;DHT22;15002;52.028;5.670;2023-03-23T00:07:55;14.40;99.90
27559;DHT22;15002;52.028;5.670;2023-03-23T00:10:21;14.50;99.90
27559;DHT22;15002;52.028;5.670;2023-03-23T00:36:21;14.40;99.90
27559;DHT22;15002;52.028;5.670;2023-03-23T00:38:48;14.40;99.90
27559;DHT22;15002;52.028;5.670;2023-03-23T00:41:14;14.30;99.90
27559;DHT22;15002;52.028;5.670;2023-03-23T00:43:40;14.40;99.90
27559;DHT22;15002;52.028;5.670;2023-03-23T00:46:06;14.50;99.90
27559;DHT22;15002;52.028;5.670;2023-03-23T00:48:36;14.70;99.90
27559;DHT22;15002;52.028;5.670;2023-03-23T00:51:03;14.60;99.90
27559;DHT22;15002;52.028;5.670;2023-03-23T00:53:36;14.70;99.90
27559;DHT22;15002;52.028;5.670;2023-03-23T00:56:02;14.70;99.90
27559;DHT22;15002;52.028;5.670;2023-03-23T01:01:04;14.40;99.90
27559;DHT22;15002;52.028;5.670;2023-03-23T01:03:30;14.50;99.90
27559;DHT22;15002;52.028;5.670;2023-03-23T01:05:55;14.70;99.90
27559;DHT22;15002;52.028;5.670;2023-03-23T01:08:22;14.70;99.90
27559;DHT22;15002;52.028;5.670;2023-03-23T01:10:49;14.50;99.90
27559;DHT22;15002;52.028;5.670;2023-03-23T01:13:16;14.60;99.90
27559;DHT22;15002;52.028;5.670;2023-03-23T01:15:42;14.70;99.90
27559;DHT22;15002;52.028;5.670;2023-03-23T01:18:09;14.80;99.90
27559;DHT22;15002;52.028;5.670;2023-03-23T01:20:36;14.70;99.90
27559;DHT22;15002;52.028;5.670;2023-03-23T01:23:02;14.60;99.90
27559;DHT22;15002;52.028;5.670;2023-03-23T01:25:30;14.70;99.90
27559;DHT22;15002;52.028;5.670;2023-03-23T01:27:57;14.70;99.90
27559;DHT22;15002;52.028;5.670;2023-03-23T01:30:23;14.80;99.90
27559;DHT22;15002;52.028;5.670;2023-03-23T01:32:50;14.80;99.90
27559;DHT22;15002;52.028;5.670;2023-03-23T01:35:16;14.70;99.90
27559;DHT22;15002;52.028;5.670;2023-03-23T01:37:42;14.70;99.90
27559;DHT22;15002;52.028;5.670;2023-03-23T01:40:09;14.70;99.90
27559;DHT22;15002;52.028;5.670;2023-03-23T01:42:37;14.70;99.90
27559;DHT22;15002;52.028;5.670;2023-03-23T01:45:24;14.70;99.90
27559;DHT22;15002;52.028;5.670;2023-03-23T01:48:03;14.70;99.90
27559;DHT22;15002;52.028;5.670;2023-03-23T01:50:38;14.70;99.90
27559;DHT22;15002;52.028;5.670;2023-03-23T01:53:07;14.80;99.90
27559;DHT22;15002;52.028;5.670;2023-03-23T01:55:36;14.90;99.90
27559;DHT22;15002;52.028;5.670;2023-03-23T01:58:04;14.80;99.90
27559;DHT22;15002;52.028;5.670;2023-03-23T02:00:30;14.70;99.90
27559;DHT22;15002;52.028;5.670;2023-03-23T02:02:55;14.70;99.90
27559;DHT22;15002;52.028;5.670;2023-03-23T02:05:36;14.70;99.90
27559;DHT22;15002;52.028;5.670;2023-03-23T02:08:04;14.70;99.90
27559;DHT22;15002;52.028;5.670;2023-03-23T02:10:33;14.70;99.90
27559;DHT22;15002;52.028;5.670;2023-03-23T02:13:00;14.70;99.90
27559;DHT22;15002;52.028;5.670;2023-03-23T02:15:39;14.80;99.90
27559;DHT22;15002;52.028;5.670;2023-03-23T02:18:18;14.90;99.90
27559;DHT22;15002;52.028;5.670;2023-03-23T02:34:35;14.70;99.90
27559;DHT22;15002;52.028;5.670;2023-03-23T02:37:13;14.70;99.90
27559;DHT22;15002;52.028;5.670;2023-03-23T02:39:52;14.70;99.90
27559;DHT22;15002;52.028;5.670;2023-03-23T02:42:29;14.80;99.90
27559;DHT22;15002;52.028;5.670;2023-03-23T02:45:02;14.60;99.90
27559;DHT22;15002;52.028;5.670;2023-03-23T02:47:29;14.70;99.90
27559;DHT22;15002;52.028;5.670;2023-03-23T02:49:57;14.80;99.90
27559;DHT22;15002;52.028;5.670;2023-03-23T02:52:27;14.70;99.90
27559;DHT22;15002;52.028;5.670;2023-03-23T02:54:55;14.90;99.90
27559;DHT22;15002;52.028;5.670;2023-03-23T02:57:22;14.90;99.90
27559;DHT22;15002;52.028;5.670;2023-03-23T02:59:48;14.70;99.90
27559;DHT22;15002;52.028;5.670;2023-03-23T03:02:17;14.70;99.90
27559;DHT22;15002;52.028;5.670;2023-03-23T03:10:26;14.60;99.90
27559;DHT22;15002;52.028;5.670;2023-03-23T03:13:14;14.70;99.90
27559;DHT22;15002;52.028;5.670;2023-03-23T03:15:56;14.70;99.90
27559;DHT22;15002;52.028;5.670;2023-03-23T03:18:31;14.70;99.90
27559;DHT22;15002;52.028;5.670;2023-03-23T03:21:02;14.70;99.90
27559;DHT22;15002;52.028;5.670;2023-03-23T03:23:31;14.60;99.90
27559;DHT22;15002;52.028;5.670;2023-03-23T03:25:58;14.50;99.90
27559;DHT22;15002;52.028;5.670;2023-03-23T03:28:26;14.50;99.90
27559;DHT22;15002;52.028;5.670;2023-03-23T03:30:58;14.60;99.90
27559;DHT22;15002;52.028;5.670;2023-03-23T03:33:26;14.60;99.90
27559;DHT22;15002;52.028;5.670;2023-03-23T03:35:57;14.50;99.90
27559;DHT22;15002;52.028;5.670;2023-03-23T03:38:25;14.60;99.90
27559;DHT22;15002;52.028;5.670;2023-03-23T03:40:53;14.60;99.90
27559;DHT22;15002;52.028;5.670;2023-03-23T03:43:19;14.60;99.90
27559;DHT22;15002;52.028;5.670;2023-03-23T03:45:45;14.70;99.90
27559;DHT22;15002;52.028;5.670;2023-03-23T03:48:11;14.70;99.90
27559;DHT22;15002;52.028;5.670;2023-03-23T03:50:37;14.80;99.90
27559;DHT22;15002;52.028;5.670;2023-03-23T03:53:03;14.80;99.90
27559;DHT22;15002;52.028;5.670;2023-03-23T03:55:29;14.70;99.90
27559;DHT22;15002;52.028;5.670;2023-03-23T03:58:01;14.80;99.90
27559;DHT22;15002;52.028;5.670;2023-03-23T04:00:26;14.80;99.90
27559;DHT22;15002;52.028;5.670;2023-03-23T04:02:53;14.70;99.90
27559;DHT22;15002;52.028;5.670;2023-03-23T04:05:21;14.70;99.90
27559;DHT22;15002;52.028;5.670;2023-03-23T04:07:47;14.60;99.90
27559;DHT22;15002;52.028;5.670;2023-03-23T04:10:17;14.50;99.90
27559;DHT22;15002;52.028;5.670;2023-03-23T04:12:45;14.60;99.90
27559;DHT22;15002;52.028;5.670;2023-03-23T04:15:11;14.60;99.90
27559;DHT22;15002;52.028;5.670;2023-03-23T04:17:37;14.70;99.90
27559;DHT22;15002;52.028;5.670;2023-03-23T04:20:04;14.70;99.90
27559;DHT22;15002;52.028;5.670;2023-03-23T04:22:39;14.70;99.90
27559;DHT22;15002;52.028;5.670;2023-03-23T04:25:09;14.90;99.90
27559;DHT22;15002;52.028;5.670;2023-03-23T04:27:38;14.80;99.90
27559;DHT22;15002;52.028;5.670;2023-03-23T04:30:05;14.70;99.90
27559;DHT22;15002;52.028;5.670;2023-03-23T04:32:32;14.80;99.90
27559;DHT22;15002;52.028;5.670;2023-03-23T04:34:58;14.80;99.90
27559;DHT22;15002;52.028;5.670;2023-03-23T04:37:25;14.90;99.90
27559;DHT22;15002;52.028;5.670;2023-03-23T04:39:57;14.90;99.90
27559;DHT22;15002;52.028;5.670;2023-03-23T04:42:30;14.70;99.90
27559;DHT22;15002;52.028;5.670;2023-03-23T04:44:57;14.70;99.90
27559;DHT22;15002;52.028;5.670;2023-03-23T04:47:25;14.80;99.90
27559;DHT22;15002;52.028;5.670;2023-03-23T04:49:55;14.70;99.90
27559;DHT22;15002;52.028;5.670;2023-03-23T04:52:21;14.70;99.90
27559;DHT22;15002;52.028;5.670;2023-03-23T04:54:47;14.60;99.90
27559;DHT22;15002;52.028;5.670;2023-03-23T04:57:13;14.60;99.90
27559;DHT22;15002;52.028;5.670;2023-03-23T04:59:41;14.70;99.90
27559;DHT22;15002;52.028;5.670;2023-03-23T05:02:07;14.80;99.90
27559;DHT22;15002;52.028;5.670;2023-03-23T05:04:32;14.80;99.90
27559;DHT22;15002;52.028;5.670;2023-03-23T05:06:59;14.80;99.90
27559;DHT22;15002;52.028;5.670;2023-03-23T05:09:24;14.80;99.90
27559;DHT22;15002;52.028;5.670;2023-03-23T05:11:50;14.70;99.90
27559;DHT22;15002;52.028;5.670;2023-03-23T05:14:15;14.70;99.90
27559;DHT22;15002;52.028;5.670;2023-03-23T05:16:41;14.80;99.90
27559;DHT22;15002;52.028;5.670;2023-03-23T05:19:07;14.70;99.90
27559;DHT22;15002;52.028;5.670;2023-03-23T05:21:33;14.70;99.90
27559;DHT22;15002;52.028;5.670;2023-03-23T05:23:59;14.70;99.90
27559;DHT22;15002;52.028;5.670;2023-03-23T05:26:26;14.70;99.90
27559;DHT22;15002;52.028;5.670;2023-03-23T05:28:55;14.60;99.90
27559;DHT22;15002;52.028;5.670;2023-03-23T05:31:21;14.60;99.90
27559;DHT22;15002;52.028;5.670;2023-03-23T05:33:48;14.80;99.90
27559;DHT22;15002;52.028;5.670;2023-03-23T05:36:14;14.60;99.90
27559;DHT22;15002;52.028;5.670;2023-03-23T05:38:40;14.60;99.90
27559;DHT22;15002;52.028;5.670;2023-03-23T05:41:11;14.50;99.90
27559;DHT22;15002;52.028;5.670;2023-03-23T05:43:36;14.60;99.90
27559;DHT22;15002;52.028;5.670;2023-03-23T05:46:02;14.60;99.90
27559;DHT22;15002;52.028;5.670;2023-03-23T05:48:28;14.50;99.90
27559;DHT22;15002;52.028;5.670;2023-03-23T05:50:54;14.50;99.90
27559;DHT22;15002;52.028;5.670;2023-03-23T05:53:20;14.60;99.90
27559;DHT22;15002;52.028;5.670;2023-03-23T05:55:45;14.50;99.90
27559;DHT22;15002;52.028;5.670;2023-03-23T05:58:12;14.50;99.90
27559;DHT22;15002;52.028;5.670;2023-03-23T06:00:37;14.50;99.90
27559;DHT22;15002;52.028;5.670;2023-03-23T06:03:04;14.70;99.90
27559;DHT22;15002;52.028;5.670;2023-03-23T06:05:31;14.70;99.90
27559;DHT22;15002;52.028;5.670;2023-03-23T06:07:58;14.60;99.90
27559;DHT22;15002;52.028;5.670;2023-03-23T06:10:24;14.60;99.90
27559;DHT22;15002;52.028;5.670;2023-03-23T06:12:50;14.80;99.90
27559;DHT22;15002;52.028;5.670;2023-03-23T06:15:17;14.90;99.90
27559;DHT22;15002;52.028;5.670;2023-03-23T06:17:43;14.90;99.90
27559;DHT22;15002;52.028;5.670;2023-03-23T06:20:09;14.80;99.90
27559;DHT22;15002;52.028;5.670;2023-03-23T06:22:39;14.60;99.90
27559;DHT22;15002;52.028;5.670;2023-03-23T06:25:09;14.50;99.90
27559;DHT22;15002;52.028;5.670;2023-03-23T06:27:37;14.60;99.90
27559;DHT22;15002;52.028;5.670;2023-03-23T06:30:04;14.60;99.90
27559;DHT22;15002;52.028;5.670;2023-03-23T06:32:31;14.70;99.90
27559;DHT22;15002;52.028;5.670;2023-03-23T06:34:58;14.60;99.90
27559;DHT22;15002;52.028;5.670;2023-03-23T06:37:23;14.80;99.90
27559;DHT22;15002;52.028;5.670;2023-03-23T06:39:50;14.90;99.90
27559;DHT22;15002;52.028;5.670;2023-03-23T06:42:17;14.80;99.90
27559;DHT22;15002;52.028;5.670;2023-03-23T06:44:43;14.90;99.90
27559;DHT22;15002;52.028;5.670;2023-03-23T06:47:09;14.80;99.90
27559;DHT22;15002;52.028;5.670;2023-03-23T06:49:35;14.70;99.90
27559;DHT22;15002;52.028;5.670;2023-03-23T06:52:01;14.60;99.90
27559;DHT22;15002;52.028;5.670;2023-03-23T06:54:28;14.80;99.90
27559;DHT22;15002;52.028;5.670;2023-03-23T06:56:54;14.80;99.90
27559;DHT22;15002;52.028;5.670;2023-03-23T06:59:19;14.80;99.90
27559;DHT22;15002;52.028;5.670;2023-03-23T07:01:45;14.90;99.90
27559;DHT22;15002;52.028;5.670;2023-03-23T07:04:12;14.80;99.90
27559;DHT22;15002;52.028;5.670;2023-03-23T07:06:37;14.80;99.90
27559;DHT22;15002;52.028;5.670;2023-03-23T07:09:03;14.80;99.90
27559;DHT22;15002;52.028;5.670;2023-03-23T07:11:29;14.80;99.90
27559;DHT22;15002;52.028;5.670;2023-03-23T07:13:55;14.80;99.90
27559;DHT22;15002;52.028;5.670;2023-03-23T07:16:21;14.80;99.90
27559;DHT22;15002;52.028;5.670;2023-03-23T07:18:47;14.70;99.90
27559;DHT22;15002;52.028;5.670;2023-03-23T07:21:12;14.70;99.90
27559;DHT22;15002;52.028;5.670;2023-03-23T07:23:38;14.70;99.90
27559;DHT22;15002;52.028;5.670;2023-03-23T07:26:04;14.80;99.90
27559;DHT22;15002;52.028;5.670;2023-03-23T07:28:30;15.00;99.90
27559;DHT22;15002;52.028;5.670;2023-03-23T07:30:56;14.90;99.90
27559;DHT22;15002;52.028;5.670;2023-03-23T07:33:22;14.90;99.90
27559;DHT22;15002;52.028;5.670;2023-03-23T07:35:47;15.00;99.90
27559;DHT22;15002;52.028;5.670;2023-03-23T07:38:13;14.90;99.90
27559;DHT22;15002;52.028;5.670;2023-03-23T07:40:40;15.00;99.90
27559;DHT22;15002;52.028;5.670;2023-03-23T07:43:06;14.70;99.90
27559;DHT22;15002;52.028;5.670;2023-03-23T07:45:32;14.80;99.90
27559;DHT22;15002;52.028;5.670;2023-03-23T07:47:59;14.90;99.90
27559;DHT22;15002;52.028;5.670;2023-03-23T07:50:25;14.90;99.90
27559;DHT22;15002;52.028;5.670;2023-03-23T07:52:54;14.90;99.90
27559;DHT22;15002;52.028;5.670;2023-03-23T07:55:20;14.80;99.90
27559;DHT22;15002;52.028;5.670;2023-03-23T07:57:48;14.90;99.90
27559;DHT22;15002;52.028;5.670;2023-03-23T08:00:16;14.80;99.90
27559;DHT22;15002;52.028;5.670;2023-03-23T08:02:46;14.80;99.90
27559;DHT22;15002;52.028;5.670;2023-03-23T08:05:12;14.70;99.90
27559;DHT22;15002;52.028;5.670;2023-03-23T08:07:39;14.70;99.90
27559;DHT22;15002;52.028;5.670;2023-03-23T08:10:06;14.70;99.90
27559;DHT22;15002;52.028;5.670;2023-03-23T08:12:36;14.80;99.90
27559;DHT22;15002;52.028;5.670;2023-03-23T08:15:03;14.70;99.90
27559;DHT22;15002;52.028;5.670;2023-03-23T08:17:29;14.80;99.90
27559;DHT22;15002;52.028;5.670;2023-03-23T08:19:55;14.80;99.90
27559;DHT22;15002;52.028;5.670;2023-03-23T08:22:20;14.60;99.90
27559;DHT22;15002;52.028;5.670;2023-03-23T08:24:46;14.60;99.90
27559;DHT22;15002;52.028;5.670;2023-03-23T08:27:12;14.40;99.90
27559;DHT22;15002;52.028;5.670;2023-03-23T08:29:38;14.40;99.90
27559;DHT22;15002;52.028;5.670;2023-03-23T08:32:04;14.50;99.90
27559;DHT22;15002;52.028;5.670;2023-03-23T08:34:30;14.60;99.90
27559;DHT22;15002;52.028;5.670;2023-03-23T08:36:56;14.50;99.90
27559;DHT22;15002;52.028;5.670;2023-03-23T08:39:22;14.70;99.90
27559;DHT22;15002;52.028;5.670;2023-03-23T08:41:49;14.60;99.90
27559;DHT22;15002;52.028;5.670;2023-03-23T08:44:15;14.70;99.90
27559;DHT22;15002;52.028;5.670;2023-03-23T08:46:41;14.60;99.90
27559;DHT22;15002;52.028;5.670;2023-03-23T08:49:06;14.70;99.90
27559;DHT22;15002;52.028;5.670;2023-03-23T08:51:32;14.60;99.90
27559;DHT22;15002;52.028;5.670;2023-03-23T08:53:58;14.60;99.90
27559;DHT22;15002;52.028;5.670;2023-03-23T08:56:24;14.80;99.90
27559;DHT22;15002;52.028;5.670;2023-03-23T08:58:49;14.90;99.90
27559;DHT22;15002;52.028;5.670;2023-03-23T09:01:15;14.70;99.90
27559;DHT22;15002;52.028;5.670;2023-03-23T09:03:41;14.70;99.90
27559;DHT22;15002;52.028;5.670;2023-03-23T09:06:08;14.70;99.90
27559;DHT22;15002;52.028;5.670;2023-03-23T09:08:34;14.80;99.90
27559;DHT22;15002;52.028;5.670;2023-03-23T09:11:06;15.00;99.90
27559;DHT22;15002;52.028;5.670;2023-03-23T09:13:33;15.00;99.90
27559;DHT22;15002;52.028;5.670;2023-03-23T09:15:59;15.20;99.90
27559;DHT22;15002;52.028;5.670;2023-03-23T09:18:24;15.40;99.90
27559;DHT22;15002;52.028;5.670;2023-03-23T09:20:51;15.40;99.90
27559;DHT22;15002;52.028;5.670;2023-03-23T09:23:17;15.40;99.90
27559;DHT22;15002;52.028;5.670;2023-03-23T09:25:43;15.60;99.90
27559;DHT22;15002;52.028;5.670;2023-03-23T09:28:09;15.60;99.90
27559;DHT22;15002;52.028;5.670;2023-03-23T09:30:36;15.70;99.90
27559;DHT22;15002;52.028;5.670;2023-03-23T09:33:04;15.90;99.90
27559;DHT22;15002;52.028;5.670;2023-03-23T09:35:31;15.90;99.90
27559;DHT22;15002;52.028;5.670;2023-03-23T09:37:59;16.00;99.90
27559;DHT22;15002;52.028;5.670;2023-03-23T09:40:39;16.10;99.90
27559;DHT22;15002;52.028;5.670;2023-03-23T09:46:26;15.90;99.90
27559;DHT22;15002;52.028;5.670;2023-03-23T09:48:59;16.00;99.90
27559;DHT22;15002;52.028;5.670;2023-03-23T09:54:23;16.10;99.90
27559;DHT22;15002;52.028;5.670;2023-03-23T09:56:50;16.20;99.90
27559;DHT22;15002;52.028;5.670;2023-03-23T10:01:55;16.10;99.90
27559;DHT22;15002;52.028;5.670;2023-03-23T10:04:44;16.10;99.90
27559;DHT22;15002;52.028;5.670;2023-03-23T10:07:19;16.00;99.90
27559;DHT22;15002;52.028;5.670;2023-03-23T10:09:48;15.90;99.90
27559;DHT22;15002;52.028;5.670;2023-03-23T10:14:58;16.30;99.90
27559;DHT22;15002;52.028;5.670;2023-03-23T10:17:57;16.40;99.90
27559;DHT22;15002;52.028;5.670;2023-03-23T10:20:46;16.80;99.90
27559;DHT22;15002;52.028;5.670;2023-03-23T10:23:35;17.20;99.90
27559;DHT22;15002;52.028;5.670;2023-03-23T10:26:25;17.10;99.90
27559;DHT22;15002;52.028;5.670;2023-03-23T10:28:56;16.80;99.90
27559;DHT22;15002;52.028;5.670;2023-03-23T10:31:27;16.60;99.90
27559;DHT22;15002;52.028;5.670;2023-03-23T10:33:57;16.80;99.90
27559;DHT22;15002;52.028;5.670;2023-03-23T10:36:35;16.70;99.90
27559;DHT22;15002;52.028;5.670;2023-03-23T10:39:20;16.60;99.90
27559;DHT22;15002;52.028;5.670;2023-03-23T10:41:48;16.60;99.90
27559;DHT22;15002;52.028;5.670;2023-03-23T10:44:19;16.70;99.90
27559;DHT22;15002;52.028;5.670;2023-03-23T10:46:54;16.80;99.90
27559;DHT22;15002;52.028;5.670;2023-03-23T10:49:37;16.80;99.90
27559;DHT22;15002;52.028;5.670;2023-03-23T10:55:14;17.00;99.90
27559;DHT22;15002;52.028;5.670;2023-03-23T10:57:41;16.80;99.90
27559;DHT22;15002;52.028;5.670;2023-03-23T11:00:18;16.60;99.90
27559;DHT22;15002;52.028;5.670;2023-03-23T11:02:56;16.70;99.90
27559;DHT22;15002;52.028;5.670;2023-03-23T11:05:25;16.70;99.90
27559;DHT22;15002;52.028;5.670;2023-03-23T11:07:56;16.90;99.90
27559;DHT22;15002;52.028;5.670;2023-03-23T11:10:33;16.90;99.90
27559;DHT22;15002;52.028;5.670;2023-03-23T11:13:00;17.00;99.90
27559;DHT22;15002;52.028;5.670;2023-03-23T11:18:00;17.10;99.90
27559;DHT22;15002;52.028;5.670;2023-03-23T11:20:26;17.30;99.90
27559;DHT22;15002;52.028;5.670;2023-03-23T11:22:52;17.30;99.90
27559;DHT22;15002;52.028;5.670;2023-03-23T11:25:18;17.00;99.90
27559;DHT22;15002;52.028;5.670;2023-03-23T11:27:44;16.90;99.90
27559;DHT22;15002;52.028;5.670;2023-03-23T11:30:24;17.30;99.90
27559;DHT22;15002;52.028;5.670;2023-03-23T11:32:51;17.40;99.90
27559;DHT22;15002;52.028;5.670;2023-03-23T11:35:21;17.30;99.90
27559;DHT22;15002;52.028;5.670;2023-03-23T11:37:56;17.20;99.90
27559;DHT22;15002;52.028;5.670;2023-03-23T11:40:27;17.30;99.90
27559;DHT22;15002;52.028;5.670;2023-03-23T11:43:01;17.20;99.90
27559;DHT22;15002;52.028;5.670;2023-03-23T11:45:49;17.30;99.90
27559;DHT22;15002;52.028;5.670;2023-03-23T11:48:40;17.40;99.90
27559;DHT22;15002;52.028;5.670;2023-03-23T11:56:44;17.30;99.90
27559;DHT22;15002;52.028;5.670;2023-03-23T11:59:16;17.40;99.90
27559;DHT22;15002;52.028;5.670;2023-03-23T12:04:54;17.40;99.90
27559;DHT22;15002;52.028;5.670;2023-03-23T12:07:50;17.40;99.90
27559;DHT22;15002;52.028;5.670;2023-03-23T12:16:03;17.60;99.90
27559;DHT22;15002;52.028;5.670;2023-03-23T12:18:58;17.60;99.90
27559;DHT22;15002;52.028;5.670;2023-03-23T12:21:49;17.40;99.90
27559;DHT22;15002;52.028;5.670;2023-03-23T12:27:35;16.80;99.90
27559;DHT22;15002;52.028;5.670;2023-03-23T12:30:07;16.70;99.90
27559;DHT22;15002;52.028;5.670;2023-03-23T12:39:13;16.50;99.90
27559;DHT22;15002;52.028;5.670;2023-03-23T12:44:53;16.50;99.90
27559;DHT22;15002;52.028;5.670;2023-03-23T12:47:47;16.50;99.90
27559;DHT22;15002;52.028;5.670;2023-03-23T12:53:06;16.60;99.90
27559;DHT22;15002;52.028;5.670;2023-03-23T12:55:50;16.40;99.90
27559;DHT22;15002;52.028;5.670;2023-03-23T12:58:21;16.60;99.90
27559;DHT22;15002;52.028;5.670;2023-03-23T13:03:59;16.60;99.90
27559;DHT22;15002;52.028;5.670;2023-03-23T13:06:42;16.80;99.90
27559;DHT22;15002;52.028;5.670;2023-03-23T13:09:14;16.80;99.90
27559;DHT22;15002;52.028;5.670;2023-03-23T13:11:41;16.80;99.90
27559;DHT22;15002;52.028;5.670;2023-03-23T13:24:56;16.70;99.90
27559;DHT22;15002;52.028;5.670;2023-03-23T13:27:26;16.80;99.90
27559;DHT22;15002;52.028;5.670;2023-03-23T13:29:56;16.80;99.90
27559;DHT22;15002;52.028;5.670;2023-03-23T13:32:34;16.70;99.90
27559;DHT22;15002;52.028;5.670;2023-03-23T13:35:03;16.90;99.90
27559;DHT22;15002;52.028;5.670;2023-03-23T13:37:29;17.10;99.90
27559;DHT22;15002;52.028;5.670;2023-03-23T13:39:56;17.10;99.90
27559;DHT22;15002;52.028;5.670;2023-03-23T13:42:26;17.10;99.90
27559;DHT22;15002;52.028;5.670;2023-03-23T13:54:46;17.50;99.90
27559;DHT22;15002;52.028;5.670;2023-03-23T13:57:33;17.20;99.90
27559;DHT22;15002;52.028;5.670;2023-03-23T14:10:43;17.20;99.90
27559;DHT22;15002;52.028;5.670;2023-03-23T14:13:15;17.00;99.90
27559;DHT22;15002;52.028;5.670;2023-03-23T14:15:58;17.00;99.90
27559;DHT22;15002;52.028;5.670;2023-03-23T14:18:30;17.00;99.90
27559;DHT22;15002;52.028;5.670;2023-03-23T14:20:57;17.10;99.90
27559;DHT22;15002;52.028;5.670;2023-03-23T14:23:23;17.20;99.90
27559;DHT22;15002;52.028;5.670;2023-03-23T14:26:00;17.20;99.90
27559;DHT22;15002;52.028;5.670;2023-03-23T14:28:36;17.30;99.90
27559;DHT22;15002;52.028;5.670;2023-03-23T14:31:02;17.30;99.90
27559;DHT22;15002;52.028;5.670;2023-03-23T14:33:28;17.40;99.90
27559;DHT22;15002;52.028;5.670;2023-03-23T14:35:57;17.50;99.90
27559;DHT22;15002;52.028;5.670;2023-03-23T14:38:23;17.50;99.90
27559;DHT22;15002;52.028;5.670;2023-03-23T14:40:54;17.50;99.90
27559;DHT22;15002;52.028;5.670;2023-03-23T14:43:25;17.50;99.90
27559;DHT22;15002;52.028;5.670;2023-03-23T14:45:55;17.30;99.90
27559;DHT22;15002;52.028;5.670;2023-03-23T14:48:21;17.30;99.90
27559;DHT22;15002;52.028;5.670;2023-03-23T14:50:58;17.30;99.90
27559;DHT22;15002;52.028;5.670;2023-03-23T14:53:29;17.20;99.90
27559;DHT22;15002;52.028;5.670;2023-03-23T14:56:03;17.30;99.90
27559;DHT22;15002;52.028;5.670;2023-03-23T14:58:30;17.40;99.90
27559;DHT22;15002;52.028;5.670;2023-03-23T15:01:29;17.50;99.90
27559;DHT22;15002;52.028;5.670;2023-03-23T15:06:35;17.50;99.90
27559;DHT22;15002;52.028;5.670;2023-03-23T15:09:13;17.60;99.90
27559;DHT22;15002;52.028;5.670;2023-03-23T15:11:40;17.40;99.90
27559;DHT22;15002;52.028;5.670;2023-03-23T15:14:18;17.30;99.90
27559;DHT22;15002;52.028;5.670;2023-03-23T15:16:50;17.20;99.90
27559;DHT22;15002;52.028;5.670;2023-03-23T15:19:24;17.30;99.90
27559;DHT22;15002;52.028;5.670;2023-03-23T15:24:37;17.30;99.90
27559;DHT22;15002;52.028;5.670;2023-03-23T15:29:32;17.50;99.90
27559;DHT22;15002;52.028;5.670;2023-03-23T15:31:58;17.40;99.90
27559;DHT22;15002;52.028;5.670;2023-03-23T15:34:38;17.40;99.90
27559;DHT22;15002;52.028;5.670;2023-03-23T15:37:27;17.50;99.90
27559;DHT22;15002;52.028;5.670;2023-03-23T15:39:54;17.40;99.90
27559;DHT22;15002;52.028;5.670;2023-03-23T15:42:29;17.50;99.90
27559;DHT22;15002;52.028;5.670;2023-03-23T15:45:02;17.40;99.90
27559;DHT22;15002;52.028;5.670;2023-03-23T15:47:46;17.40;99.90
27559;DHT22;15002;52.028;5.670;2023-03-23T15:52:53;17.40;99.90
27559;DHT22;15002;52.028;5.670;2023-03-23T15:55:29;17.50;99.90
27559;DHT22;15002;52.028;5.670;2023-03-23T15:57:56;17.60;99.90
27559;DHT22;15002;52.028;5.670;2023-03-23T16:00:24;17.60;99.90
27559;DHT22;15002;52.028;5.670;2023-03-23T16:03:05;17.70;99.90
27559;DHT22;15002;52.028;5.670;2023-03-23T16:05:32;17.70;99.90
27559;DHT22;15002;52.028;5.670;2023-03-23T16:07:58;17.80;99.90
27559;DHT22;15002;52.028;5.670;2023-03-23T16:10:25;17.80;99.90
27559;DHT22;15002;52.028;5.670;2023-03-23T16:12:51;17.80;99.90
27559;DHT22;15002;52.028;5.670;2023-03-23T16:15:17;17.90;99.90
27559;DHT22;15002;52.028;5.670;2023-03-23T16:17:43;17.90;99.90
27559;DHT22;15002;52.028;5.670;2023-03-23T16:20:15;17.70;99.90
27559;DHT22;15002;52.028;5.670;2023-03-23T16:22:41;17.60;99.90
27559;DHT22;15002;52.028;5.670;2023-03-23T16:25:08;17.70;99.90
27559;DHT22;15002;52.028;5.670;2023-03-23T16:27:33;17.70;99.90
27559;DHT22;15002;52.028;5.670;2023-03-23T16:29:59;17.70;99.90
27559;DHT22;15002;52.028;5.670;2023-03-23T16:32:27;17.90;99.90
27559;DHT22;15002;52.028;5.670;2023-03-23T16:34:53;17.90;99.90
27559;DHT22;15002;52.028;5.670;2023-03-23T16:37:19;18.00;99.90
27559;DHT22;15002;52.028;5.670;2023-03-23T16:39:45;18.00;99.90
27559;DHT22;15002;52.028;5.670;2023-03-23T16:42:11;17.90;99.90
27559;DHT22;15002;52.028;5.670;2023-03-23T16:44:36;17.80;99.90
27559;DHT22;15002;52.028;5.670;2023-03-23T16:47:02;17.70;99.90
27559;DHT22;15002;52.028;5.670;2023-03-23T16:49:28;17.50;99.90
27559;DHT22;15002;52.028;5.670;2023-03-23T16:51:53;17.50;99.90
27559;DHT22;15002;52.028;5.670;2023-03-23T16:54:19;17.30;99.90
27559;DHT22;15002;52.028;5.670;2023-03-23T16:56:45;17.40;99.90
27559;DHT22;15002;52.028;5.670;2023-03-23T16:59:12;17.40;99.90
27559;DHT22;15002;52.028;5.670;2023-03-23T17:01:37;17.50;99.90
27559;DHT22;15002;52.028;5.670;2023-03-23T17:04:03;17.40;99.90
27559;DHT22;15002;52.028;5.670;2023-03-23T17:06:29;17.50;99.90
27559;DHT22;15002;52.028;5.670;2023-03-23T17:08:55;17.50;99.90
27559;DHT22;15002;52.028;5.670;2023-03-23T17:11:21;17.50;99.90
27559;DHT22;15002;52.028;5.670;2023-03-23T17:13:47;17.40;99.90
27559;DHT22;15002;52.028;5.670;2023-03-23T17:16:13;17.30;99.90
27559;DHT22;15002;52.028;5.670;2023-03-23T17:18:38;17.30;99.90
27559;DHT22;15002;52.028;5.670;2023-03-23T17:21:04;17.40;99.90
27559;DHT22;15002;52.028;5.670;2023-03-23T17:23:31;17.40;99.90
27559;DHT22;15002;52.028;5.670;2023-03-23T17:25:57;17.40;99.90
27559;DHT22;15002;52.028;5.670;2023-03-23T17:28:22;17.30;99.90
27559;DHT22;15002;52.028;5.670;2023-03-23T17:30:50;17.30;99.90
27559;DHT22;15002;52.028;5.670;2023-03-23T17:33:16;17.30;99.90
27559;DHT22;15002;52.028;5.670;2023-03-23T17:35:44;17.20;99.90
27559;DHT22;15002;52.028;5.670;2023-03-23T17:38:10;17.10;99.90
27559;DHT22;15002;52.028;5.670;2023-03-23T17:40:36;17.20;99.90
27559;DHT22;15002;52.028;5.670;2023-03-23T17:43:02;17.30;99.90
27559;DHT22;15002;52.028;5.670;2023-03-23T17:45:28;17.20;99.90
27559;DHT22;15002;52.028;5.670;2023-03-23T17:47:53;17.10;99.90
27559;DHT22;15002;52.028;5.670;2023-03-23T17:50:19;17.00;99.90
27559;DHT22;15002;52.028;5.670;2023-03-23T17:52:45;17.20;99.90
27559;DHT22;15002;52.028;5.670;2023-03-23T17:55:11;17.10;99.90
27559;DHT22;15002;52.028;5.670;2023-03-23T17:57:37;17.00;99.90
27559;DHT22;15002;52.028;5.670;2023-03-23T18:00:04;17.00;99.90